Time;durP1;ratioP1;P1;durP2;ratioP2;P2;SDS_P1;SDS_P2;PMS_P1;PMS_P2;Temp;Humidity;BMP_temperature;BMP_pressure;BME280_temperature;BME280_humidity;BME280_pressure;Samples;Min_cycle;Max_cycle;Signal;HPM_P1;HPM_P2
2023/09/25 00:01:19;;;;;;;2.43;1.87;;;9.30;99.90;;;;;;5027914;28;20218;-38
2023/09/25 00:03:45;;;;;;;2.47;1.87;;;9.30;99.90;;;;;;5038949;28;20277;-35
2023/09/25 00:06:11;;;;;;;2.83;1.83;;;9.20;99.90;;;;;;5028927;28;20270;-39
2023/09/25 00:08:36;;;;;;;2.90;2.00;;;9.10;99.90;;;;;;5020761;28;20203;-38
2023/09/25 00:11:03;;;;;;;3.20;1.90;;;9.10;99.90;;;;;;5020115;28;20183;-36
2023/09/25 00:13:30;;;;;;;2.70;2.03;;;9.10;99.90;;;;;;5029263;28;20229;-38
2023/09/25 00:16:01;;;;;;;3.77;2.27;;;9.10;99.90;;;;;;5030627;28;20178;-37
2023/09/25 00:18:31;;;;;;;4.20;2.37;;;9.00;99.90;;;;;;5024892;28;20232;-35
2023/09/25 00:20:57;;;;;;;3.23;2.30;;;9.00;99.90;;;;;;5028246;28;20210;-34
2023/09/25 00:23:25;;;;;;;2.60;2.03;;;9.00;99.90;;;;;;5028592;28;20189;-35
2023/09/25 00:26:02;;;;;;;2.73;2.20;;;9.00;99.90;;;;;;5029279;28;20193;-38
2023/09/25 00:28:31;;;;;;;2.83;2.13;;;8.90;99.90;;;;;;5026395;28;20301;-37
2023/09/25 00:30:58;;;;;;;4.20;2.33;;;8.90;99.90;;;;;;5030957;28;20221;-39
2023/09/25 00:33:24;;;;;;;5.10;2.40;;;9.00;99.90;;;;;;5019746;28;20185;-34
2023/09/25 00:35:50;;;;;;;2.40;2.10;;;8.90;99.90;;;;;;5015858;28;20174;-35
2023/09/25 00:38:15;;;;;;;3.40;2.60;;;8.90;99.90;;;;;;5031061;28;20202;-37
2023/09/25 00:40:42;;;;;;;4.03;2.60;;;8.90;99.90;;;;;;5035915;28;20374;-37
2023/09/25 00:43:12;;;;;;;2.67;2.37;;;8.90;99.90;;;;;;5018402;28;20174;-38
2023/09/25 00:45:40;;;;;;;3.73;2.77;;;8.80;99.90;;;;;;5022457;28;20273;-34
2023/09/25 00:48:15;;;;;;;3.20;2.60;;;8.80;99.90;;;;;;5036293;28;20173;-39
2023/09/25 00:50:42;;;;;;;4.13;2.60;;;8.80;99.90;;;;;;5034873;28;20303;-38
2023/09/25 00:53:09;;;;;;;5.20;3.10;;;8.80;99.90;;;;;;5035270;28;20279;-35
2023/09/25 00:55:35;;;;;;;4.23;2.90;;;8.80;99.90;;;;;;5019098;28;20181;-38
2023/09/25 00:58:01;;;;;;;4.33;2.60;;;8.70;99.90;;;;;;5019537;28;20189;-37
2023/09/25 01:00:27;;;;;;;3.40;2.50;;;8.70;99.90;;;;;;5017856;28;20206;-35
2023/09/25 01:02:53;;;;;;;2.60;2.40;;;8.70;99.90;;;;;;5016083;28;20225;-38
2023/09/25 01:05:19;;;;;;;4.10;2.00;;;8.70;99.90;;;;;;5018973;28;20281;-38
2023/09/25 01:07:45;;;;;;;2.50;2.13;;;8.70;99.90;;;;;;5019697;28;20194;-35
2023/09/25 01:10:16;;;;;;;3.87;2.10;;;8.60;99.90;;;;;;5018213;28;20208;-37
2023/09/25 01:12:49;;;;;;;3.10;2.23;;;8.60;99.90;;;;;;5013452;28;20209;-37
2023/09/25 01:15:19;;;;;;;4.00;2.10;;;8.60;99.90;;;;;;5034667;28;20184;-36
2023/09/25 01:17:51;;;;;;;3.00;2.30;;;8.50;99.90;;;;;;5052466;28;20205;-38
2023/09/25 01:20:19;;;;;;;3.53;2.50;;;8.50;99.90;;;;;;5030562;28;20185;-38
2023/09/25 01:22:48;;;;;;;2.67;1.87;;;8.50;99.90;;;;;;5020229;28;20651;-37
2023/09/25 01:25:20;;;;;;;3.10;2.27;;;8.50;99.90;;;;;;5036019;28;20216;-39
2023/09/25 01:27:47;;;;;;;3.20;2.67;;;8.40;99.90;;;;;;5033614;28;20189;-38
2023/09/25 01:30:14;;;;;;;4.83;2.40;;;8.40;99.90;;;;;;5051843;28;20205;-36
2023/09/25 01:32:42;;;;;;;4.97;2.17;;;8.30;99.90;;;;;;5035010;28;20276;-36
2023/09/25 01:35:14;;;;;;;2.60;2.03;;;8.30;99.90;;;;;;5051550;28;20186;-35
2023/09/25 01:37:41;;;;;;;3.30;2.10;;;8.20;99.90;;;;;;5023226;28;20182;-36
2023/09/25 01:40:12;;;;;;;3.80;2.40;;;8.20;99.90;;;;;;5033571;28;20190;-35
2023/09/25 01:42:39;;;;;;;3.93;2.10;;;8.10;99.90;;;;;;5034758;28;20185;-37
2023/09/25 01:45:08;;;;;;;4.30;2.20;;;8.00;99.90;;;;;;5017011;28;20249;-34
2023/09/25 01:47:35;;;;;;;3.53;2.53;;;7.90;99.90;;;;;;5018520;28;20207;-36
2023/09/25 01:50:01;;;;;;;3.53;2.20;;;7.90;99.90;;;;;;5034183;28;20216;-34
2023/09/25 01:52:29;;;;;;;3.00;2.27;;;7.90;99.90;;;;;;5042428;28;20235;-36
2023/09/25 01:54:55;;;;;;;3.87;2.33;;;7.90;99.90;;;;;;5018358;28;20189;-35
2023/09/25 01:57:21;;;;;;;3.37;2.43;;;8.00;99.90;;;;;;5022504;28;20232;-37
2023/09/25 01:59:47;;;;;;;3.83;2.80;;;8.00;99.90;;;;;;5018396;28;20201;-39
2023/09/25 02:02:13;;;;;;;3.33;2.67;;;8.00;99.90;;;;;;5018356;28;20178;-34
2023/09/25 02:04:39;;;;;;;3.97;2.80;;;8.00;99.90;;;;;;5034325;28;20182;-37
2023/09/25 02:07:05;;;;;;;2.97;2.20;;;8.00;99.90;;;;;;5032746;28;20224;-37
2023/09/25 02:09:31;;;;;;;3.15;2.45;;;8.00;99.90;;;;;;5043112;28;20202;-36
2023/09/25 02:11:57;;;;;;;4.77;2.53;;;8.00;99.90;;;;;;5049449;28;20186;-39
2023/09/25 02:14:25;;;;;;;4.50;2.57;;;8.00;99.90;;;;;;5013545;28;20178;-38
2023/09/25 02:16:51;;;;;;;3.50;2.60;;;7.90;99.90;;;;;;5045489;28;20186;-32
2023/09/25 02:19:18;;;;;;;3.43;2.60;;;7.90;99.90;;;;;;5034274;28;20208;-34
2023/09/25 02:21:46;;;;;;;5.27;2.43;;;7.90;99.90;;;;;;5050500;28;20235;-37
2023/09/25 02:24:12;;;;;;;2.83;2.50;;;7.90;99.90;;;;;;5031581;28;20178;-36
2023/09/25 02:26:38;;;;;;;3.27;2.70;;;7.80;99.90;;;;;;5027298;28;20196;-34
2023/09/25 02:29:04;;;;;;;2.97;2.17;;;7.80;99.90;;;;;;5033843;28;20228;-37
2023/09/25 02:31:29;;;;;;;3.20;2.40;;;7.80;99.90;;;;;;5034025;28;20218;-34
2023/09/25 02:33:55;;;;;;;4.23;2.70;;;7.80;99.90;;;;;;5026467;28;20226;-35
2023/09/25 02:36:21;;;;;;;2.80;2.40;;;7.80;99.90;;;;;;5030768;28;20178;-36
2023/09/25 02:38:47;;;;;;;3.17;2.30;;;7.80;99.90;;;;;;5029676;28;20213;-31
2023/09/25 02:41:13;;;;;;;3.67;2.60;;;7.70;99.90;;;;;;5026164;28;20204;-32
2023/09/25 02:43:39;;;;;;;4.07;2.27;;;7.70;99.90;;;;;;5023828;28;20278;-35
2023/09/25 02:46:05;;;;;;;3.93;2.23;;;7.70;99.90;;;;;;5030583;28;20265;-37
2023/09/25 02:48:31;;;;;;;3.27;2.67;;;7.60;99.90;;;;;;5031233;28;20317;-36
2023/09/25 02:50:57;;;;;;;2.90;2.43;;;7.60;99.90;;;;;;5030436;28;20213;-37
2023/09/25 02:53:25;;;;;;;4.20;2.20;;;7.60;99.90;;;;;;5013378;28;20182;-33
2023/09/25 02:55:51;;;;;;;2.87;2.40;;;7.50;99.90;;;;;;5028610;28;20217;-38
2023/09/25 02:58:17;;;;;;;3.10;2.20;;;7.50;99.90;;;;;;5030470;28;20198;-35
2023/09/25 03:00:44;;;;;;;2.77;2.40;;;7.40;99.90;;;;;;5038455;28;20209;-38
2023/09/25 03:03:11;;;;;;;3.00;2.30;;;7.40;99.90;;;;;;5030314;28;20192;-35
2023/09/25 03:05:36;;;;;;;4.80;2.40;;;7.40;99.90;;;;;;5030174;28;20244;-39
2023/09/25 03:08:03;;;;;;;3.10;2.30;;;7.30;99.90;;;;;;5026498;28;20194;-35
2023/09/25 03:10:29;;;;;;;3.10;2.57;;;7.30;99.90;;;;;;5030511;28;20209;-34
2023/09/25 03:12:55;;;;;;;2.93;2.37;;;7.30;99.90;;;;;;5046824;28;20186;-37
2023/09/25 03:15:22;;;;;;;3.40;2.40;;;7.30;99.90;;;;;;5027508;28;20170;-32
2023/09/25 03:17:50;;;;;;;3.07;2.47;;;7.50;99.90;;;;;;5033372;28;20183;-32
2023/09/25 03:20:17;;;;;;;3.70;2.60;;;7.40;99.90;;;;;;5028668;28;20174;-37
2023/09/25 03:22:47;;;;;;;3.30;2.40;;;7.50;99.90;;;;;;5024321;28;20182;-35
2023/09/25 03:25:17;;;;;;;4.40;2.80;;;7.40;99.90;;;;;;5035098;28;20186;-34
2023/09/25 03:27:43;;;;;;;3.73;2.40;;;7.50;99.90;;;;;;5029763;28;20193;-34
2023/09/25 03:30:10;;;;;;;3.20;2.40;;;7.40;99.90;;;;;;5032645;28;20239;-38
2023/09/25 03:32:37;;;;;;;3.77;2.60;;;7.40;99.90;;;;;;5049290;28;20284;-34
2023/09/25 03:35:03;;;;;;;2.57;2.10;;;7.40;99.90;;;;;;5032849;28;20181;-38
2023/09/25 03:37:30;;;;;;;3.50;2.60;;;7.30;99.90;;;;;;5017514;28;20217;-34
2023/09/25 03:40:23;;;;;;;2.53;2.20;;;7.20;99.90;;;;;;5006591;28;20213;-37
2023/09/25 03:42:55;;;;;;;3.57;2.30;;;7.10;99.90;;;;;;5015786;28;20189;-37
2023/09/25 03:45:27;;;;;;;2.17;1.97;;;7.10;99.90;;;;;;5027742;28;20220;-34
2023/09/25 03:47:58;;;;;;;3.30;2.43;;;7.10;99.90;;;;;;5031166;28;20250;-29
2023/09/25 03:50:30;;;;;;;2.07;1.87;;;7.00;99.90;;;;;;5044573;28;20213;-34
2023/09/25 03:53:00;;;;;;;3.63;2.37;;;7.00;99.90;;;;;;5022832;28;20189;-38
2023/09/25 03:55:28;;;;;;;2.37;2.00;;;7.00;99.90;;;;;;5013121;28;20229;-34
2023/09/25 03:57:55;;;;;;;4.37;2.70;;;6.90;99.90;;;;;;5011763;28;20177;-34
2023/09/25 04:00:20;;;;;;;3.10;2.23;;;6.90;99.90;;;;;;5040701;28;20181;-34
2023/09/25 04:02:46;;;;;;;3.00;2.53;;;6.90;99.90;;;;;;5031922;28;20184;-34
2023/09/25 04:05:12;;;;;;;4.07;2.70;;;6.90;99.90;;;;;;5031961;28;20189;-35
2023/09/25 04:07:38;;;;;;;2.90;2.30;;;6.90;99.90;;;;;;5031989;28;20219;-31
2023/09/25 04:10:07;;;;;;;3.67;2.70;;;6.90;99.90;;;;;;5015565;28;20212;-32
2023/09/25 04:12:34;;;;;;;3.10;2.40;;;6.90;99.90;;;;;;5031954;28;20176;-35
2023/09/25 04:15:01;;;;;;;2.80;2.27;;;7.00;99.90;;;;;;5013152;28;20212;-35
2023/09/25 04:17:27;;;;;;;4.60;2.67;;;7.00;99.90;;;;;;5032389;28;20177;-35
2023/09/25 04:19:53;;;;;;;3.77;2.50;;;7.00;99.90;;;;;;5034171;28;20275;-32
2023/09/25 04:22:20;;;;;;;3.07;2.20;;;7.00;99.90;;;;;;5044181;28;20272;-34
2023/09/25 04:24:47;;;;;;;2.80;2.20;;;7.00;99.90;;;;;;5021785;28;20254;-34
2023/09/25 04:27:14;;;;;;;3.13;2.17;;;7.00;99.90;;;;;;5032108;28;20191;-38
2023/09/25 04:29:42;;;;;;;4.73;2.97;;;7.00;99.90;;;;;;5049352;28;20715;-32
2023/09/25 04:32:08;;;;;;;3.53;2.60;;;6.90;99.90;;;;;;5010046;28;20655;-36
2023/09/25 04:34:35;;;;;;;4.37;2.80;;;6.80;99.90;;;;;;4994374;28;20186;-33
2023/09/25 04:37:02;;;;;;;3.53;2.50;;;6.80;99.90;;;;;;5027866;28;20206;-36
2023/09/25 04:39:28;;;;;;;4.40;2.77;;;6.70;99.90;;;;;;5010405;28;20281;-35
2023/09/25 04:41:59;;;;;;;3.83;3.00;;;6.70;99.90;;;;;;4987711;28;20185;-35
2023/09/25 04:44:25;;;;;;;3.83;2.80;;;6.80;99.90;;;;;;5009384;28;20192;-32
2023/09/25 04:46:51;;;;;;;3.90;2.40;;;6.80;99.90;;;;;;5022373;28;20191;-32
2023/09/25 04:49:18;;;;;;;2.93;2.50;;;6.80;99.90;;;;;;5009460;28;20202;-31
2023/09/25 04:51:44;;;;;;;3.50;2.70;;;6.80;99.90;;;;;;4989808;28;20260;-33
2023/09/25 04:54:10;;;;;;;3.43;2.33;;;6.80;99.90;;;;;;4994931;28;20219;-33
2023/09/25 04:56:36;;;;;;;4.40;2.70;;;6.80;99.90;;;;;;4991923;28;20183;-36
2023/09/25 04:59:03;;;;;;;4.37;3.13;;;6.70;99.90;;;;;;5009163;28;20286;-36
2023/09/25 05:01:29;;;;;;;5.00;2.80;;;6.80;99.90;;;;;;5008079;28;20235;-34
2023/09/25 05:03:55;;;;;;;5.10;2.70;;;6.70;99.90;;;;;;5007559;28;20270;-39
2023/09/25 05:06:20;;;;;;;3.63;2.93;;;6.70;99.90;;;;;;5009805;28;20316;-38
2023/09/25 05:08:48;;;;;;;3.20;2.47;;;6.70;99.90;;;;;;5012507;28;20213;-37
2023/09/25 05:11:15;;;;;;;3.50;2.53;;;6.70;99.90;;;;;;5007330;28;20213;-32
2023/09/25 05:13:44;;;;;;;2.90;2.60;;;6.70;99.90;;;;;;4995359;28;20188;-33
2023/09/25 05:16:11;;;;;;;3.13;2.30;;;6.60;99.90;;;;;;5009852;28;20257;-36
2023/09/25 05:18:40;;;;;;;3.10;2.37;;;6.70;99.90;;;;;;4990494;28;20228;-35
2023/09/25 05:21:07;;;;;;;3.50;2.00;;;6.60;99.90;;;;;;4996087;28;20193;-35
2023/09/25 05:23:41;;;;;;;3.53;2.33;;;6.60;99.90;;;;;;5013759;28;20188;-37
2023/09/25 05:26:08;;;;;;;5.00;2.33;;;6.50;99.90;;;;;;4997521;28;20189;-34
2023/09/25 05:28:33;;;;;;;3.30;2.47;;;6.50;99.90;;;;;;5011673;28;20211;-31
2023/09/25 05:30:59;;;;;;;3.93;2.40;;;6.50;99.90;;;;;;5003159;28;20287;-38
2023/09/25 05:33:25;;;;;;;3.10;2.30;;;6.50;99.90;;;;;;5033030;28;20278;-32
2023/09/25 05:35:51;;;;;;;4.13;2.80;;;6.40;99.90;;;;;;5028622;28;20181;-35
2023/09/25 05:38:17;;;;;;;3.83;2.60;;;6.40;99.90;;;;;;5023935;28;20211;-34
2023/09/25 05:40:42;;;;;;;3.97;2.30;;;6.50;99.90;;;;;;5015580;28;20246;-32
2023/09/25 05:43:09;;;;;;;2.57;2.30;;;6.50;99.90;;;;;;5017091;28;20211;-37
2023/09/25 05:45:34;;;;;;;2.57;2.23;;;6.50;99.90;;;;;;5026706;28;20181;-39
2023/09/25 05:48:00;;;;;;;3.53;2.70;;;6.50;99.90;;;;;;5010168;28;20187;-34
2023/09/25 05:50:26;;;;;;;3.63;2.63;;;6.60;99.90;;;;;;5030892;28;20228;-36
2023/09/25 05:52:54;;;;;;;3.70;2.50;;;6.70;99.90;;;;;;5010102;28;21114;-34
2023/09/25 05:55:33;;;;;;;3.13;2.20;;;6.70;99.90;;;;;;5039842;28;20204;-33
2023/09/25 05:58:00;;;;;;;4.20;3.07;;;6.80;99.90;;;;;;5007232;28;20188;-35
2023/09/25 06:00:29;;;;;;;4.77;3.50;;;6.90;99.90;;;;;;5012342;28;20190;-36
2023/09/25 06:02:57;;;;;;;5.77;3.20;;;7.00;99.90;;;;;;5025885;28;20226;-36
2023/09/25 06:05:23;;;;;;;3.90;2.90;;;7.10;99.90;;;;;;5037471;28;20216;-36
2023/09/25 06:07:49;;;;;;;3.37;2.90;;;7.20;99.90;;;;;;5001417;28;20190;-34
2023/09/25 06:10:17;;;;;;;3.70;3.03;;;7.20;99.90;;;;;;5016771;28;20266;-32
2023/09/25 06:12:44;;;;;;;6.87;3.10;;;7.30;99.90;;;;;;5006302;28;20244;-39
2023/09/25 06:15:17;;;;;;;4.13;2.90;;;7.40;99.90;;;;;;5021146;28;20192;-35
2023/09/25 06:17:46;;;;;;;3.20;2.67;;;7.40;99.90;;;;;;5020619;28;20273;-36
2023/09/25 06:20:20;;;;;;;5.63;2.73;;;7.60;99.90;;;;;;5016225;28;20216;-32
2023/09/25 06:22:48;;;;;;;4.93;2.70;;;7.60;99.90;;;;;;5039347;28;20234;-36
2023/09/25 06:25:21;;;;;;;6.10;2.80;;;7.70;99.90;;;;;;5032715;28;20243;-34
2023/09/25 06:27:50;;;;;;;3.47;2.67;;;7.80;99.90;;;;;;5039058;28;20184;-32
2023/09/25 06:30:16;;;;;;;3.27;2.70;;;7.90;99.90;;;;;;5019157;28;20204;-38
2023/09/25 06:32:42;;;;;;;5.03;2.77;;;7.90;99.90;;;;;;5056815;28;20177;-38
2023/09/25 06:35:08;;;;;;;3.17;2.00;;;8.00;99.90;;;;;;5032032;28;20179;-35
2023/09/25 06:37:34;;;;;;;3.53;2.50;;;8.10;99.90;;;;;;5026223;28;20186;-37
2023/09/25 06:40:00;;;;;;;2.60;2.40;;;8.10;99.90;;;;;;5034277;28;20198;-33
2023/09/25 06:42:26;;;;;;;3.77;2.53;;;8.20;99.90;;;;;;5037577;28;20205;-37
2023/09/25 06:44:52;;;;;;;4.10;2.30;;;8.30;99.90;;;;;;5045977;28;20180;-34
2023/09/25 06:47:19;;;;;;;4.33;2.70;;;8.40;99.90;;;;;;5042817;28;20204;-34
2023/09/25 06:49:46;;;;;;;3.87;2.70;;;8.40;99.90;;;;;;5029520;28;20201;-33
2023/09/25 06:52:15;;;;;;;2.83;2.50;;;8.60;99.90;;;;;;5030195;28;20181;-35
2023/09/25 06:54:41;;;;;;;2.53;2.30;;;8.60;99.90;;;;;;5027429;28;20205;-36
2023/09/25 06:57:07;;;;;;;3.37;2.63;;;8.70;99.90;;;;;;5033569;28;20185;-34
2023/09/25 06:59:43;;;;;;;5.80;2.80;;;8.80;99.90;;;;;;5034757;28;20281;-34
2023/09/25 07:02:10;;;;;;;3.17;2.80;;;8.90;99.90;;;;;;5039951;28;20268;-33
2023/09/25 07:04:37;;;;;;;3.03;2.40;;;9.00;99.90;;;;;;5032823;28;20194;-36
2023/09/25 07:07:03;;;;;;;5.50;2.63;;;9.10;99.90;;;;;;5031198;28;20186;-32
2023/09/25 07:09:29;;;;;;;3.60;2.70;;;9.20;99.90;;;;;;5029207;28;20204;-36
2023/09/25 07:11:55;;;;;;;3.80;2.93;;;9.30;99.90;;;;;;5043678;28;20209;-34
2023/09/25 07:14:24;;;;;;;4.67;2.57;;;9.40;99.90;;;;;;5033352;28;20209;-34
2023/09/25 07:16:53;;;;;;;3.67;2.43;;;9.50;99.90;;;;;;5021497;28;20183;-36
2023/09/25 07:19:19;;;;;;;3.37;2.40;;;9.60;99.90;;;;;;5034913;28;20197;-37
2023/09/25 07:21:50;;;;;;;4.73;3.10;;;9.80;99.90;;;;;;5054837;28;20224;-36
2023/09/25 07:24:18;;;;;;;3.70;2.63;;;9.80;99.90;;;;;;5035571;28;20176;-38
2023/09/25 07:26:48;;;;;;;3.30;2.73;;;10.00;99.90;;;;;;5052488;28;20242;-36
2023/09/25 07:29:19;;;;;;;3.33;2.53;;;10.10;99.90;;;;;;5039619;28;20209;-37
2023/09/25 07:31:45;;;;;;;3.33;2.33;;;10.20;99.90;;;;;;5033287;28;20211;-36
2023/09/25 07:34:10;;;;;;;3.37;2.70;;;10.30;99.90;;;;;;5030970;28;20186;-34
2023/09/25 07:36:36;;;;;;;3.33;2.50;;;10.40;99.90;;;;;;5053214;28;20178;-36
2023/09/25 07:39:04;;;;;;;6.00;2.50;;;10.60;99.90;;;;;;5035465;28;20458;-32
2023/09/25 07:41:29;;;;;;;4.50;2.80;;;10.70;99.90;;;;;;5052172;28;20181;-34
2023/09/25 07:43:55;;;;;;;5.60;2.93;;;10.80;99.90;;;;;;5032166;28;20662;-34
2023/09/25 07:46:21;;;;;;;3.50;2.90;;;10.90;99.90;;;;;;5056438;28;20182;-33
2023/09/25 07:48:47;;;;;;;3.93;2.57;;;11.00;99.90;;;;;;5033595;28;20201;-36
2023/09/25 07:51:14;;;;;;;4.30;2.70;;;11.10;99.90;;;;;;5041867;28;20255;-35
2023/09/25 07:53:42;;;;;;;5.33;2.83;;;11.30;99.90;;;;;;5032966;28;20178;-35
2023/09/25 07:56:08;;;;;;;3.67;2.80;;;11.40;99.90;;;;;;5034387;28;20183;-36
2023/09/25 07:58:39;;;;;;;3.53;2.83;;;11.50;99.90;;;;;;5033237;28;20214;-35
2023/09/25 08:01:08;;;;;;;4.03;2.97;;;11.60;99.90;;;;;;5032917;28;20187;-35
2023/09/25 08:03:36;;;;;;;3.63;3.00;;;11.80;99.90;;;;;;5041459;28;20214;-38
2023/09/25 08:06:05;;;;;;;3.93;2.50;;;11.90;99.90;;;;;;5052514;28;20234;-37
2023/09/25 08:08:32;;;;;;;3.50;2.80;;;12.00;99.90;;;;;;5038702;28;20209;-37
2023/09/25 08:10:58;;;;;;;3.00;2.70;;;12.20;99.90;;;;;;5056140;28;20211;-35
2023/09/25 08:13:25;;;;;;;3.33;2.70;;;12.30;99.90;;;;;;5029762;28;20223;-37
2023/09/25 08:15:53;;;;;;;4.40;2.57;;;12.40;99.90;;;;;;5001531;28;20217;-32
2023/09/25 08:18:23;;;;;;;4.47;2.77;;;12.60;99.90;;;;;;5015363;28;20299;-33
2023/09/25 08:20:50;;;;;;;5.40;2.97;;;12.70;99.90;;;;;;5015367;28;20207;-40
2023/09/25 08:23:16;;;;;;;3.63;2.50;;;12.80;99.90;;;;;;5038116;28;20269;-36
2023/09/25 08:25:43;;;;;;;3.30;2.50;;;13.00;99.90;;;;;;5022070;28;20275;-39
2023/09/25 08:28:09;;;;;;;5.57;2.77;;;13.20;99.90;;;;;;5028027;28;20185;-32
2023/09/25 08:30:34;;;;;;;4.33;2.60;;;13.30;99.90;;;;;;5026743;28;20216;-36
2023/09/25 08:33:00;;;;;;;4.23;2.97;;;13.40;99.90;;;;;;5028760;28;20170;-38
2023/09/25 08:35:26;;;;;;;3.80;2.77;;;13.60;99.90;;;;;;5028705;28;20184;-36
2023/09/25 08:37:52;;;;;;;4.73;2.70;;;13.80;99.90;;;;;;5020779;28;20175;-39
2023/09/25 08:40:19;;;;;;;2.60;2.40;;;13.90;99.90;;;;;;5024656;28;20256;-39
2023/09/25 08:42:46;;;;;;;3.37;2.43;;;14.10;99.90;;;;;;5030753;28;20174;-35
2023/09/25 08:45:15;;;;;;;3.50;2.80;;;14.10;99.90;;;;;;5044207;28;20191;-39
2023/09/25 08:47:42;;;;;;;3.27;2.47;;;14.20;99.90;;;;;;5017450;28;20187;-38
2023/09/25 08:50:09;;;;;;;3.60;2.40;;;14.30;99.90;;;;;;5037662;28;20206;-38
2023/09/25 08:52:35;;;;;;;4.73;2.67;;;14.40;99.90;;;;;;5035999;28;20236;-39
2023/09/25 08:55:02;;;;;;;3.03;2.30;;;14.60;99.90;;;;;;5028495;28;20170;-37
2023/09/25 08:57:28;;;;;;;2.63;2.23;;;14.70;99.90;;;;;;5028688;28;20174;-39
2023/09/25 08:59:54;;;;;;;3.47;2.23;;;14.90;99.90;;;;;;5028874;28;20232;-37
2023/09/25 09:02:20;;;;;;;3.97;2.30;;;15.10;99.90;;;;;;5030989;28;20218;-37
2023/09/25 09:04:46;;;;;;;3.70;2.50;;;15.20;99.90;;;;;;5033993;28;20178;-39
2023/09/25 09:07:15;;;;;;;3.37;2.20;;;15.40;99.90;;;;;;5037446;28;20188;-39
2023/09/25 09:09:43;;;;;;;2.20;2.00;;;15.50;99.90;;;;;;5036089;28;20207;-37
2023/09/25 09:12:09;;;;;;;2.37;1.80;;;15.70;99.90;;;;;;5041114;28;20214;-36
2023/09/25 09:14:46;;;;;;;3.53;2.10;;;15.70;99.90;;;;;;5025612;28;20181;-36
2023/09/25 09:17:18;;;;;;;3.73;2.13;;;15.80;99.90;;;;;;5041136;28;20182;-39
2023/09/25 09:19:48;;;;;;;3.73;2.40;;;16.00;99.90;;;;;;5056491;28;20265;-39
2023/09/25 09:22:17;;;;;;;3.27;2.03;;;16.20;99.90;;;;;;5034720;28;20186;-38
2023/09/25 09:24:45;;;;;;;2.80;2.00;;;16.40;99.90;;;;;;5044548;28;20261;-38
2023/09/25 09:27:14;;;;;;;2.93;2.00;;;16.50;99.90;;;;;;5061331;28;20273;-40
2023/09/25 09:29:43;;;;;;;2.70;1.60;;;16.70;99.90;;;;;;5035418;28;20284;-38
2023/09/25 09:32:09;;;;;;;2.40;1.73;;;16.90;99.90;;;;;;5027819;28;20202;-39
2023/09/25 09:34:36;;;;;;;3.33;1.70;;;17.00;99.90;;;;;;5040591;28;20189;-39
2023/09/25 09:37:03;;;;;;;2.50;1.50;;;17.20;99.90;;;;;;5031794;28;20189;-39
2023/09/25 09:39:34;;;;;;;3.28;1.77;;;17.20;99.90;;;;;;5030830;28;20213;-40
2023/09/25 09:42:05;;;;;;;2.60;1.67;;;17.40;99.90;;;;;;5025569;28;20272;-38
2023/09/25 09:44:40;;;;;;;2.67;1.60;;;17.60;99.90;;;;;;5004070;28;20194;-36
2023/09/25 09:47:08;;;;;;;2.75;1.73;;;17.70;99.90;;;;;;5024421;28;20185;-39
2023/09/25 09:49:41;;;;;;;2.58;1.75;;;17.80;99.90;;;;;;5017099;28;20207;-39
2023/09/25 09:52:11;;;;;;;3.58;2.22;;;17.90;99.90;;;;;;5042726;28;20201;-40
2023/09/25 09:54:40;;;;;;;4.07;1.65;;;18.00;99.90;;;;;;5034346;28;20208;-37
2023/09/25 09:57:09;;;;;;;2.97;1.75;;;18.10;99.90;;;;;;5024117;28;20178;-39
2023/09/25 09:59:35;;;;;;;2.85;1.63;;;18.20;99.90;;;;;;5024451;28;20301;-38
2023/09/25 10:02:03;;;;;;;3.40;1.88;;;18.10;99.90;;;;;;5027696;28;20178;-40
2023/09/25 10:04:30;;;;;;;3.92;1.70;;;18.20;99.90;;;;;;5014540;28;20631;-40
2023/09/25 10:07:08;;;;;;;2.13;1.92;;;18.40;99.90;;;;;;5029233;28;20201;-38
2023/09/25 10:09:34;;;;;;;2.47;1.65;;;18.50;99.90;;;;;;5024607;28;20214;-40
2023/09/25 10:12:03;;;;;;;4.30;1.60;;;18.70;99.90;;;;;;5024155;28;20289;-39
2023/09/25 10:14:45;;;;;;;3.80;1.67;;;18.80;99.90;;;;;;5030028;28;20230;-39
2023/09/25 10:17:16;;;;;;;3.20;1.90;;;19.00;99.90;;;;;;5041556;28;20190;-39
2023/09/25 10:19:54;;;;;;;1.90;1.70;;;19.00;99.90;;;;;;5024502;28;20243;-40
2023/09/25 10:22:30;;;;;;;2.65;1.50;;;19.10;99.90;;;;;;5024945;28;20181;-36
2023/09/25 10:25:12;;;;;;;4.55;2.00;;;19.20;99.90;;;;;;5043894;28;20186;-37
2023/09/25 10:27:39;;;;;;;2.95;1.50;;;19.30;99.90;;;;;;5021853;28;20217;-39
2023/09/25 10:30:15;;;;;;;3.03;1.75;;;19.50;99.90;;;;;;5034442;28;20344;-37
2023/09/25 10:32:54;;;;;;;2.63;1.83;;;19.50;99.90;;;;;;5025903;28;20188;-38
2023/09/25 10:35:44;;;;;;;2.20;1.75;;;19.60;99.90;;;;;;5030481;28;20181;-37
2023/09/25 10:38:25;;;;;;;1.95;1.63;;;19.80;99.90;;;;;;5043228;28;20201;-39
2023/09/25 10:40:54;;;;;;;2.00;1.60;;;19.90;99.90;;;;;;5031131;28;20237;-37
2023/09/25 10:43:22;;;;;;;3.28;1.70;;;19.90;99.90;;;;;;5009138;28;20185;-37
2023/09/25 10:45:49;;;;;;;2.80;1.30;;;19.90;99.90;;;;;;5024828;28;20198;-38
2023/09/25 10:48:16;;;;;;;2.28;1.77;;;20.00;99.90;;;;;;5033372;28;20205;-36
2023/09/25 10:50:43;;;;;;;2.38;1.80;;;20.00;99.90;;;;;;5033053;28;20585;-37
2023/09/25 10:53:13;;;;;;;2.72;1.90;;;20.00;99.90;;;;;;5030867;28;20209;-36
2023/09/25 10:55:40;;;;;;;2.22;1.75;;;20.00;99.90;;;;;;5026084;28;20220;-39
2023/09/25 10:58:06;;;;;;;2.50;1.60;;;19.90;99.90;;;;;;5010364;28;20189;-40
2023/09/25 11:00:36;;;;;;;2.60;1.92;;;20.00;99.90;;;;;;5014516;28;20186;-38
2023/09/25 11:03:03;;;;;;;3.60;1.80;;;20.30;99.90;;;;;;5025212;28;20220;-39
2023/09/25 11:05:30;;;;;;;3.80;1.90;;;20.50;99.90;;;;;;5024279;28;20213;-39
2023/09/25 11:07:57;;;;;;;2.50;1.35;;;20.50;99.90;;;;;;5042578;28;20173;-39
2023/09/25 11:10:36;;;;;;;4.32;1.90;;;20.70;99.90;;;;;;5044504;28;20209;-39
2023/09/25 11:13:04;;;;;;;2.88;1.65;;;20.80;99.90;;;;;;5041867;28;20261;-38
2023/09/25 11:15:41;;;;;;;2.25;1.50;;;21.00;99.90;;;;;;5023214;28;20178;-39
2023/09/25 11:18:10;;;;;;;3.08;2.10;;;21.20;99.90;;;;;;5022838;28;20178;-39
2023/09/25 11:20:38;;;;;;;2.40;1.77;;;21.20;99.90;;;;;;5008102;28;20182;-37
2023/09/25 11:23:17;;;;;;;3.05;2.25;;;21.10;99.90;;;;;;5045691;28;20375;-39
2023/09/25 11:25:48;;;;;;;3.22;2.00;;;21.20;99.90;;;;;;5025004;28;20264;-40
2023/09/25 11:28:22;;;;;;;2.67;1.90;;;21.20;99.90;;;;;;5036371;28;20200;-39
2023/09/25 11:30:49;;;;;;;1.98;1.73;;;21.30;99.90;;;;;;5031335;28;20205;-38
2023/09/25 11:33:19;;;;;;;1.73;1.42;;;21.40;99.90;;;;;;5033404;28;20260;-37
2023/09/25 11:35:52;;;;;;;3.60;2.20;;;21.50;99.90;;;;;;5030235;28;20181;-40
2023/09/25 11:38:28;;;;;;;2.00;1.50;;;21.60;99.90;;;;;;5009334;28;20198;-38
2023/09/25 11:40:54;;;;;;;1.80;1.40;;;21.70;99.90;;;;;;5012161;28;20193;-40
2023/09/25 11:43:20;;;;;;;2.17;1.67;;;21.60;99.90;;;;;;5006414;28;20244;-40
2023/09/25 12:05:29;;;;;;;4.80;1.70;;;22.00;99.90;;;;;;5068926;28;20195;-91
2023/09/25 12:09:11;;;;;;;3.30;1.73;;;22.00;99.90;;;;;;5048080;28;20198;-93
2023/09/25 12:11:38;;;;;;;2.00;1.52;;;22.20;99.90;;;;;;5045001;28;20232;-91
2023/09/25 12:14:04;;;;;;;1.70;1.58;;;22.50;99.90;;;;;;5112038;22;20236;-41
2023/09/25 12:16:31;;;;;;;2.20;1.70;;;22.70;99.90;;;;;;5042806;28;20184;-41
2023/09/25 12:19:04;;;;;;;2.80;1.75;;;22.90;99.90;;;;;;5042873;28;20184;-41
2023/09/25 12:21:33;;;;;;;4.47;1.85;;;23.00;99.90;;;;;;5040271;28;20327;-41
2023/09/25 12:24:05;;;;;;;2.83;1.75;;;23.10;99.90;;;;;;5029400;28;20226;-40
2023/09/25 12:26:37;;;;;;;2.33;1.88;;;23.00;99.90;;;;;;5060928;28;20256;-42
2023/09/25 12:29:20;;;;;;;2.58;1.85;;;23.00;99.90;;;;;;5062722;28;20192;-41
2023/09/25 12:31:53;;;;;;;4.25;1.73;;;23.10;99.90;;;;;;5047446;28;20223;-41
2023/09/25 12:34:31;;;;;;;2.63;1.70;;;23.20;99.90;;;;;;5059421;28;20326;-41
2023/09/25 12:36:58;;;;;;;2.33;1.60;;;23.50;99.90;;;;;;5066605;28;20170;-42
2023/09/25 12:39:24;;;;;;;1.40;1.30;;;23.70;99.90;;;;;;5031740;28;20188;-42
2023/09/25 12:41:50;;;;;;;2.75;1.60;;;23.40;99.90;;;;;;5041215;28;20185;-42
2023/09/25 12:44:16;;;;;;;2.20;1.77;;;23.50;99.90;;;;;;5036146;28;20203;-42
2023/09/25 12:46:42;;;;;;;4.70;1.63;;;23.80;99.90;;;;;;5036020;28;20185;-41
2023/09/25 12:49:09;;;;;;;2.70;1.60;;;23.90;99.90;;;;;;5031430;28;20181;-42
2023/09/25 12:51:35;;;;;;;3.75;1.75;;;24.10;99.90;;;;;;5030809;28;20213;-41
2023/09/25 12:54:01;;;;;;;2.05;1.63;;;24.20;99.90;;;;;;5034041;28;20194;-40
2023/09/25 12:56:28;;;;;;;2.75;1.27;;;24.30;99.90;;;;;;5053318;28;20173;-41
2023/09/25 12:58:55;;;;;;;2.75;1.73;;;24.40;99.90;;;;;;5046993;28;20185;-41
2023/09/25 13:01:23;;;;;;;2.45;1.67;;;24.50;99.90;;;;;;5037052;28;20185;-41
2023/09/25 13:03:51;;;;;;;2.67;1.95;;;24.60;99.90;;;;;;5044370;28;20689;-42
2023/09/25 13:06:17;;;;;;;2.45;1.60;;;24.60;99.90;;;;;;5036359;28;20276;-41
2023/09/25 13:08:43;;;;;;;2.05;1.45;;;24.60;99.90;;;;;;5044065;28;20185;-41
2023/09/25 13:11:09;;;;;;;2.15;1.50;;;24.70;99.90;;;;;;5035852;28;20224;-42
2023/09/25 13:13:34;;;;;;;2.17;1.65;;;24.80;99.90;;;;;;5049224;28;20178;-42
2023/09/25 13:16:01;;;;;;;2.00;1.73;;;24.80;99.90;;;;;;5030395;28;20209;-42
2023/09/25 13:18:27;;;;;;;2.00;1.80;;;25.00;99.90;;;;;;5047206;28;20232;-42